VAM | Vabird-VBD

Virtual Vabird! Aerolínea Virtual de habla hispana, desde 2011




 INFORMACIÓN METAR y TAF
METAR FOR YBCG
ADDS - METARS form results

(1546 UTC 08 March 2021)
Data provider http://aviationweather.gov/metar/data/
 
METAR text: YBCG 081530Z AUTO 35005KT 9999 // OVC026 24/20 Q1014 RF00.0/000.0
Conditions at: YBCG (COOLANGATTA AWS , AU) observed 1530 UTC 08 March 2021
Temperature: 24.0°C (75°F)
Dewpoint: 20.0°C (68°F) [RH = 78%]
Pressure (altimeter): 29.94 inches Hg (1014.0 mb)
Winds: from the N (350 degrees) at 6 MPH (5 knots; 2.6 m/s)
Visibility: 6 or more miles (10+ km)
Ceiling: 2600 feet AGL
Clouds: overcast cloud deck at 2600 feet AGL
Weather: no significant weather observed at this time

METAR text: YBCG 081500Z AUTO 00000KT 9999 // OVC028 24/20 Q1015
Conditions at: YBCG (COOLANGATTA AWS , AU) observed 1500 UTC 08 March 2021
Temperature: 24.0°C (75°F)
Dewpoint: 20.0°C (68°F) [RH = 78%]
Pressure (altimeter): 29.97 inches Hg (1015.0 mb)
Winds: calm
Visibility: 6 or more miles (10+ km)
Ceiling: 2800 feet AGL
Clouds: overcast cloud deck at 2800 feet AGL
Weather: no significant weather observed at this time

Forecast for: YBCG (COOLANGATTA AWS , AU)
Text: TAF YBCG 081409Z 0815/0912 34010KT 9999 -SHRA BKN025
Forecast period: 1500 UTC 08 March 2021 to 0000 UTC 09 March 2021
Forecast type: FROM: standard forecast or significant change
Winds: from the NNW (340 degrees) at 12 MPH (10 knots; 5.1 m/s)
Visibility: 6 or more miles (10+ km)
Ceiling: 2500 feet AGL
Clouds: broken clouds at 2500 feet AGL
Weather: -SHRA  (light rain showers)
Text: FM090000 01016KT 9999 NSW FEW030
Forecast period: 0000 to 1200 UTC 09 March 2021
Forecast type: FROM: standard forecast or significant change
Winds: from the N (10 degrees) at 18 MPH (16 knots; 8.2 m/s)
Visibility: 6 or more miles (10+ km)
Ceiling: at least 12,000 feet AGL
Clouds: few clouds at 3000 feet AGL
Weather: NSW  (no significant weather)
Text: PROB30
Forecast period: 0500 to 1000 UTC 09 March 2021
Forecast type: TEMPORARY: The following changes expected for less than half the time period
Winds: variable direction winds at 29 MPH (25 knots; 12.9 m/s)
gusting to 46 MPH (40 knots; 20.6 m/s)
Visibility: 1.24 miles (2.00 km)
Ceiling: 1200 feet AGL
Clouds: broken clouds at 1200 feet AGL
scattered clouds at 4000 feet AGL
Weather: TSRA  (rain associated with thunderstorm(s))

 MAPA DE AEROPUERTO

 INFORMACIÓN DE PISTA